Decoded Metar for LFLX (CHATEAUROUX in FRANCE) (IATA:CHR) | Meteo·Mobile Aviation Weather
aviador You're here:

LFLX Decoded Metar

CHATEAUROUX in FRANCE
Report Time2018-08-21 16:00:00
UTC Time2018-08-21 16:07:26
Flight Rules vfr VFR
Wind040° at 07 kt
W.Decomp.*RWY 03: 6.9 kt HW 1.2 kt RCW
W.Rank040° ranks 11
Current wind is above 040° avg. (6.2)
Visibility9999 m
Phenomena:N/A
Clouds:N/A
Expected CloudBase > 6,400 ft AGL from Temp-Dew spread
CeilingNone
Temp30°C (ISA +16)
Dew Point14°C (38% RH)
Heat Index29.5°C
AAT28.8°C
QNH1017 hPa
Density Alt2,431 ft
Elevation515 ft
Report Wrong Elevation
Raw Report
METAR LFLX 211600Z AUTO 04007KT 350V110 CAVOK 30/14 Q1017 NOSIG=

Extra information for LFLX:More info

Metar Taf Metar & Taf Last 4 Metars F.Rules Stats Wind Profile Meteogram Temp Stats Airport Information Weather charts Add Link Nearby VenuesMetar ALERT Operation Metar Decoded Social comments